Time;durP1;ratioP1;P1;durP2;ratioP2;P2;SDS_P1;SDS_P2;PMS_P1;PMS_P2;Temp;Humidity;BMP_temperature;BMP_pressure;BME280_temperature;BME280_humidity;BME280_pressure;Samples;Min_cycle;Max_cycle;Signal;HPM_P1;HPM_P2
2023/03/23 00:00:50;;;;;;;4.53;3.00;;;;;;;;;;5076388;28;20201;-70
2023/03/23 00:03:17;;;;;;;4.17;3.10;;;;;;;;;;5075772;28;20576;-69
2023/03/23 00:05:49;;;;;;;5.20;3.03;;;;;;;;;;5075870;28;20281;-68
2023/03/23 00:08:15;;;;;;;5.80;3.27;;;;;;;;;;5076253;28;20154;-68
2023/03/23 00:10:41;;;;;;;5.17;3.27;;;;;;;;;;5075997;28;20223;-68
2023/03/23 00:13:07;;;;;;;9.50;3.20;;;;;;;;;;5075875;28;20666;-71
2023/03/23 00:15:35;;;;;;;3.80;3.07;;;;;;;;;;5075991;28;20194;-68
2023/03/23 00:18:04;;;;;;;4.27;3.17;;;;;;;;;;5074336;28;20185;-67
2023/03/23 00:20:39;;;;;;;4.07;3.40;;;;;;;;;;5075554;28;20196;-68
2023/03/23 00:23:06;;;;;;;5.13;2.80;;;;;;;;;;5076240;28;20185;-69
2023/03/23 00:25:32;;;;;;;5.33;3.50;;;;;;;;;;5075386;28;20197;-69
2023/03/23 00:27:58;;;;;;;3.67;3.37;;;;;;;;;;5075346;28;20174;-70
2023/03/23 00:30:24;;;;;;;3.67;3.30;;;;;;;;;;5074666;28;20231;-70
2023/03/23 00:32:50;;;;;;;4.33;3.80;;;;;;;;;;5075228;28;20186;-68
2023/03/23 00:35:17;;;;;;;6.53;3.80;;;;;;;;;;5075345;28;20605;-69
2023/03/23 00:37:43;;;;;;;5.10;3.70;;;;;;;;;;5074468;28;20209;-70
2023/03/23 00:40:10;;;;;;;6.10;4.77;;;;;;;;;;5075220;28;20177;-69
2023/03/23 00:42:37;;;;;;;6.67;5.20;;;;;;;;;;5075672;28;20209;-69
2023/03/23 00:45:10;;;;;;;6.00;4.93;;;;;;;;;;5075495;28;20280;-68
2023/03/23 00:47:36;;;;;;;6.43;4.43;;;;;;;;;;5075565;28;20542;-68
2023/03/23 00:50:02;;;;;;;8.70;4.33;;;;;;;;;;5075168;28;20185;-68
2023/03/23 00:52:28;;;;;;;7.00;4.03;;;;;;;;;;5075034;28;20253;-68
2023/03/23 00:54:54;;;;;;;5.63;3.43;;;;;;;;;;5075015;28;20306;-69
2023/03/23 00:57:23;;;;;;;5.20;3.40;;;;;;;;;;5073581;28;20173;-68
2023/03/23 00:59:49;;;;;;;4.47;3.33;;;;;;;;;;5074857;28;20264;-68
2023/03/23 01:02:16;;;;;;;3.57;3.00;;;;;;;;;;5074768;28;20813;-67
2023/03/23 01:04:45;;;;;;;7.43;3.70;;;;;;;;;;5074692;28;20281;-68
2023/03/23 01:07:17;;;;;;;4.03;3.27;;;;;;;;;;5074478;28;20181;-69
2023/03/23 01:09:44;;;;;;;6.30;3.50;;;;;;;;;;5074582;28;20687;-68
2023/03/23 01:12:11;;;;;;;5.20;3.60;;;;;;;;;;5074462;28;20249;-70
2023/03/23 01:14:37;;;;;;;5.80;3.70;;;;;;;;;;5074419;28;20273;-68
2023/03/23 01:17:03;;;;;;;4.43;3.63;;;;;;;;;;5074298;28;20177;-68
2023/03/23 01:19:29;;;;;;;8.73;4.00;;;;;;;;;;5074328;28;20178;-68
2023/03/23 01:21:55;;;;;;;6.77;3.70;;;;;;;;;;5074505;28;20182;-68
2023/03/23 01:24:21;;;;;;;5.43;3.50;;;;;;;;;;5074126;28;20270;-70
2023/03/23 01:26:47;;;;;;;5.70;3.93;;;;;;;;;;5074088;28;20231;-69
2023/03/23 01:29:13;;;;;;;5.37;3.23;;;;;;;;;;5072961;28;20598;-69
2023/03/23 01:31:39;;;;;;;8.87;4.07;;;;;;;;;;5074289;28;20230;-69
2023/03/23 01:34:05;;;;;;;3.53;3.23;;;;;;;;;;5074103;28;20180;-69
2023/03/23 01:36:32;;;;;;;4.63;3.50;;;;;;;;;;5073821;28;20205;-68
2023/03/23 01:39:00;;;;;;;4.97;3.60;;;;;;;;;;5074344;28;20182;-68
2023/03/23 01:41:26;;;;;;;4.77;3.63;;;;;;;;;;5072499;28;20186;-69
2023/03/23 01:44:05;;;;;;;4.97;3.30;;;;;;;;;;5073914;28;20557;-69
2023/03/23 01:46:31;;;;;;;4.30;3.13;;;;;;;;;;5073896;28;20204;-70
2023/03/23 01:49:01;;;;;;;4.53;3.40;;;;;;;;;;5073910;28;20265;-69
2023/03/23 01:51:27;;;;;;;6.43;3.97;;;;;;;;;;5074138;28;20659;-69
2023/03/23 01:54:02;;;;;;;4.80;3.67;;;;;;;;;;5073619;28;20181;-69
2023/03/23 01:56:32;;;;;;;5.03;3.43;;;;;;;;;;5074168;28;20694;-69
2023/03/23 01:58:59;;;;;;;5.50;3.60;;;;;;;;;;5074119;28;20603;-69
2023/03/23 02:01:25;;;;;;;5.57;3.50;;;;;;;;;;5074715;28;20201;-68
2023/03/23 02:03:52;;;;;;;6.37;4.47;;;;;;;;;;5075113;28;20198;-70
2023/03/23 02:06:18;;;;;;;8.47;4.80;;;;;;;;;;5073919;28;20208;-69
2023/03/23 02:08:44;;;;;;;7.03;4.93;;;;;;;;;;5074410;28;20178;-69
2023/03/23 02:11:21;;;;;;;6.93;5.33;;;;;;;;;;5074297;28;20235;-69
2023/03/23 02:13:47;;;;;;;8.53;5.80;;;;;;;;;;5074558;28;20249;-71
2023/03/23 02:16:32;;;;;;;7.47;5.50;;;;;;;;;;5073338;28;20284;-69
2023/03/23 02:19:01;;;;;;;7.60;5.23;;;;;;;;;;5073624;28;20169;-69
2023/03/23 02:21:38;;;;;;;7.63;4.00;;;;;;;;;;5073464;28;20174;-69
2023/03/23 02:24:23;;;;;;;7.83;4.30;;;;;;;;;;5073677;28;20189;-68
2023/03/23 02:26:49;;;;;;;5.40;3.90;;;;;;;;;;5073085;28;20541;-68
2023/03/23 02:29:33;;;;;;;5.07;3.80;;;;;;;;;;5071920;28;20736;-69
2023/03/23 02:32:17;;;;;;;5.40;3.77;;;;;;;;;;5073257;28;20162;-68
2023/03/23 02:34:47;;;;;;;6.43;3.80;;;;;;;;;;5072729;28;20295;-68
2023/03/23 02:37:15;;;;;;;8.50;3.60;;;;;;;;;;5073105;28;20161;-69
2023/03/23 02:39:46;;;;;;;6.03;3.63;;;;;;;;;;5073079;28;20182;-68
2023/03/23 02:42:14;;;;;;;7.37;3.50;;;;;;;;;;5072939;28;20178;-69
2023/03/23 02:44:42;;;;;;;3.57;3.27;;;;;;;;;;5072898;28;20209;-70
2023/03/23 02:47:25;;;;;;;3.97;3.40;;;;;;;;;;5071638;28;20205;-68
2023/03/23 02:49:53;;;;;;;6.13;3.50;;;;;;;;;;5073183;28;20232;-69
2023/03/23 02:52:25;;;;;;;6.47;3.43;;;;;;;;;;5074010;28;20243;-69
2023/03/23 02:54:51;;;;;;;4.47;3.30;;;;;;;;;;5077043;28;20194;-68
2023/03/23 02:57:17;;;;;;;4.57;3.87;;;;;;;;;;5077252;28;20173;-68
2023/03/23 02:59:43;;;;;;;8.17;3.60;;;;;;;;;;5075612;28;20215;-69
2023/03/23 03:02:21;;;;;;;5.47;3.70;;;;;;;;;;5076922;28;20174;-68
2023/03/23 03:05:06;;;;;;;3.93;3.50;;;;;;;;;;5077341;28;20193;-68
2023/03/23 03:07:48;;;;;;;4.97;3.70;;;;;;;;;;5075605;28;20209;-69
2023/03/23 03:10:34;;;;;;;4.70;3.80;;;;;;;;;;5076923;28;20261;-68
2023/03/23 03:13:03;;;;;;;3.77;3.40;;;;;;;;;;5076883;28;20174;-68
2023/03/23 03:15:33;;;;;;;5.63;3.97;;;;;;;;;;5076570;28;20663;-68
2023/03/23 03:18:04;;;;;;;7.17;3.23;;;;;;;;;;5075073;28;20174;-70
2023/03/23 03:20:31;;;;;;;4.60;3.30;;;;;;;;;;5076617;28;20173;-69
2023/03/23 03:22:58;;;;;;;6.47;3.63;;;;;;;;;;5076273;28;20201;-69
2023/03/23 03:25:25;;;;;;;5.47;3.60;;;;;;;;;;5076052;28;20194;-69
2023/03/23 03:27:52;;;;;;;4.13;3.17;;;;;;;;;;5076016;28;20232;-68
2023/03/23 03:30:20;;;;;;;3.90;3.03;;;;;;;;;;5075094;28;20181;-68
2023/03/23 03:32:48;;;;;;;3.63;3.33;;;;;;;;;;5076764;28;20524;-69
2023/03/23 03:35:15;;;;;;;4.20;3.07;;;;;;;;;;5076202;28;20266;-69
2023/03/23 03:37:44;;;;;;;4.83;3.30;;;;;;;;;;5076322;28;20227;-70
2023/03/23 03:40:12;;;;;;;4.73;2.97;;;;;;;;;;5076106;28;20186;-69
2023/03/23 03:42:38;;;;;;;3.87;3.13;;;;;;;;;;5075866;28;20261;-70
2023/03/23 03:45:05;;;;;;;4.43;3.30;;;;;;;;;;5074634;28;20207;-70
2023/03/23 03:47:31;;;;;;;4.27;3.60;;;;;;;;;;5076005;28;20173;-70
2023/03/23 03:49:57;;;;;;;4.90;3.80;;;;;;;;;;5076190;28;20184;-69
2023/03/23 03:52:23;;;;;;;3.50;3.17;;;;;;;;;;5074368;28;20174;-69
2023/03/23 03:54:49;;;;;;;4.97;3.50;;;;;;;;;;5074569;28;20259;-68
2023/03/23 03:57:17;;;;;;;5.37;3.90;;;;;;;;;;5074474;28;20182;-69
2023/03/23 03:59:43;;;;;;;4.27;3.30;;;;;;;;;;5074338;28;20186;-69
2023/03/23 04:02:13;;;;;;;7.50;3.50;;;;;;;;;;5075469;28;20174;-69
2023/03/23 04:04:40;;;;;;;5.27;3.47;;;;;;;;;;5073956;28;20698;-69
2023/03/23 04:07:05;;;;;;;3.57;3.27;;;;;;;;;;5075597;28;20170;-69
2023/03/23 04:09:31;;;;;;;4.03;3.63;;;;;;;;;;5075232;28;20177;-69
2023/03/23 04:11:57;;;;;;;9.40;4.97;;;;;;;;;;5075853;28;20174;-69
2023/03/23 04:14:23;;;;;;;5.80;4.40;;;;;;;;;;5075170;28;20178;-69
2023/03/23 04:16:51;;;;;;;7.27;4.80;;;;;;;;;;5074148;28;20339;-69
2023/03/23 04:19:18;;;;;;;5.13;4.60;;;;;;;;;;5074323;28;20174;-69
2023/03/23 04:21:48;;;;;;;5.63;4.83;;;;;;;;;;5076312;28;20174;-69
2023/03/23 04:24:15;;;;;;;5.90;5.23;;;;;;;;;;5074430;28;20190;-70
2023/03/23 04:26:41;;;;;;;5.03;4.53;;;;;;;;;;5075020;28;20169;-70
2023/03/23 04:29:08;;;;;;;4.20;3.70;;;;;;;;;;5073784;28;20230;-70
2023/03/23 04:31:34;;;;;;;4.50;3.57;;;;;;;;;;5075213;28;20174;-71
2023/03/23 04:34:01;;;;;;;4.20;3.40;;;;;;;;;;5074894;28;20185;-70
2023/03/23 04:36:28;;;;;;;4.13;3.10;;;;;;;;;;5074883;28;20206;-70
2023/03/23 04:38:54;;;;;;;4.10;3.70;;;;;;;;;;5074891;28;20177;-69
2023/03/23 04:41:21;;;;;;;5.10;3.87;;;;;;;;;;5074769;28;20643;-69
2023/03/23 04:43:52;;;;;;;4.03;3.60;;;;;;;;;;5074983;28;20202;-69
2023/03/23 04:46:19;;;;;;;4.13;3.73;;;;;;;;;;5073694;28;20572;-69
2023/03/23 04:48:45;;;;;;;6.47;4.20;;;;;;;;;;5073584;28;20272;-69
2023/03/23 04:51:12;;;;;;;4.07;3.57;;;;;;;;;;5073385;28;20251;-69
2023/03/23 04:53:38;;;;;;;4.00;3.13;;;;;;;;;;5074738;28;20639;-69
2023/03/23 04:56:04;;;;;;;3.00;2.70;;;;;;;;;;5074385;28;20202;-69
2023/03/23 04:58:33;;;;;;;3.90;2.73;;;;;;;;;;5074658;28;20174;-70
2023/03/23 05:00:59;;;;;;;3.40;2.90;;;;;;;;;;5074349;28;20189;-69
2023/03/23 05:03:25;;;;;;;3.30;3.03;;;;;;;;;;5074592;28;20251;-69
2023/03/23 05:05:52;;;;;;;4.53;3.27;;;;;;;;;;5074307;28;20593;-70
2023/03/23 05:08:19;;;;;;;3.83;3.00;;;;;;;;;;5072909;28;20277;-69
2023/03/23 05:10:52;;;;;;;4.20;3.00;;;;;;;;;;5074062;28;20232;-69
2023/03/23 05:13:19;;;;;;;3.20;2.90;;;;;;;;;;5073153;28;20201;-69
2023/03/23 05:15:45;;;;;;;4.87;2.80;;;;;;;;;;5073659;28;20201;-70
2023/03/23 05:18:11;;;;;;;3.23;2.80;;;;;;;;;;5072694;28;20674;-69
2023/03/23 05:20:37;;;;;;;4.10;2.77;;;;;;;;;;5074272;28;20182;-67
2023/03/23 05:23:04;;;;;;;4.50;2.93;;;;;;;;;;5074064;28;20569;-67
2023/03/23 05:25:30;;;;;;;4.60;2.97;;;;;;;;;;5073811;28;20284;-69
2023/03/23 05:27:56;;;;;;;2.87;2.60;;;;;;;;;;5074070;28;20686;-70
2023/03/23 05:30:22;;;;;;;3.80;3.00;;;;;;;;;;5074080;28;20174;-69
2023/03/23 05:32:51;;;;;;;3.13;2.80;;;;;;;;;;5073791;28;20178;-67
2023/03/23 05:35:18;;;;;;;4.23;2.93;;;;;;;;;;5073494;28;20335;-69
2023/03/23 05:37:44;;;;;;;3.63;3.10;;;;;;;;;;5072345;28;20182;-68
2023/03/23 05:40:11;;;;;;;3.67;3.10;;;;;;;;;;5073684;28;20188;-69
2023/03/23 05:42:39;;;;;;;4.77;2.80;;;;;;;;;;5073575;28;20664;-69
2023/03/23 05:45:06;;;;;;;3.90;3.20;;;;;;;;;;5073585;28;20580;-70
2023/03/23 05:47:32;;;;;;;5.13;3.27;;;;;;;;;;5073819;28;20174;-70
2023/03/23 05:49:58;;;;;;;3.33;3.03;;;;;;;;;;5072172;28;20201;-69
2023/03/23 05:52:24;;;;;;;5.23;3.00;;;;;;;;;;5072207;28;20182;-67
2023/03/23 05:54:50;;;;;;;4.90;2.77;;;;;;;;;;5072040;28;20201;-67
2023/03/23 05:57:16;;;;;;;3.73;3.00;;;;;;;;;;5073513;28;20177;-67
2023/03/23 05:59:42;;;;;;;4.53;3.10;;;;;;;;;;5073310;28;20174;-67
2023/03/23 06:02:09;;;;;;;4.83;3.17;;;;;;;;;;5073279;28;20184;-70
2023/03/23 06:04:37;;;;;;;3.80;2.87;;;;;;;;;;5073289;28;20687;-68
2023/03/23 06:07:04;;;;;;;5.03;3.20;;;;;;;;;;5073278;28;20200;-68
2023/03/23 06:09:30;;;;;;;5.10;3.07;;;;;;;;;;5073234;28;20174;-68
2023/03/23 06:11:56;;;;;;;3.60;3.30;;;;;;;;;;5073286;28;20200;-68
2023/03/23 06:14:22;;;;;;;4.90;2.90;;;;;;;;;;5073377;28;20484;-67
2023/03/23 06:16:48;;;;;;;4.80;3.20;;;;;;;;;;5071630;28;20204;-68
2023/03/23 06:19:15;;;;;;;3.50;2.90;;;;;;;;;;5073060;28;20675;-68
2023/03/23 06:21:41;;;;;;;5.57;2.77;;;;;;;;;;5073509;28;20177;-68
2023/03/23 06:24:07;;;;;;;4.20;3.23;;;;;;;;;;5072884;28;20284;-67
2023/03/23 06:26:36;;;;;;;5.70;3.17;;;;;;;;;;5073054;28;20653;-67
2023/03/23 06:29:02;;;;;;;5.33;3.07;;;;;;;;;;5076784;28;20197;-68
2023/03/23 06:31:28;;;;;;;5.97;2.87;;;;;;;;;;5077247;28;20666;-69
2023/03/23 06:33:54;;;;;;;4.53;3.30;;;;;;;;;;5075916;28;20195;-67
2023/03/23 06:36:20;;;;;;;4.93;2.93;;;;;;;;;;5076951;28;20216;-68
2023/03/23 06:38:46;;;;;;;7.53;3.97;;;;;;;;;;5077516;28;20759;-68
2023/03/23 06:41:12;;;;;;;5.63;3.73;;;;;;;;;;5079122;28;20217;-67
2023/03/23 06:43:39;;;;;;;7.87;3.87;;;;;;;;;;5101049;22;20301;-70
2023/03/23 06:46:06;;;;;;;9.37;4.77;;;;;;;;;;5079352;28;20717;-70
2023/03/23 06:48:32;;;;;;;7.33;4.87;;;;;;;;;;5079581;28;20178;-71
2023/03/23 06:50:58;;;;;;;6.60;3.93;;;;;;;;;;5097493;28;20178;-71
2023/03/23 06:53:24;;;;;;;7.30;4.33;;;;;;;;;;5079382;28;20200;-71
2023/03/23 06:55:51;;;;;;;4.67;3.50;;;;;;;;;;5099835;28;20177;-72
2023/03/23 06:58:17;;;;;;;6.97;3.70;;;;;;;;;;5100276;28;20594;-71
2023/03/23 07:00:43;;;;;;;6.93;4.50;;;;;;;;;;5100757;28;20672;-72
2023/03/23 07:03:09;;;;;;;6.70;5.23;;;;;;;;;;5079260;28;20694;-71
2023/03/23 07:05:35;;;;;;;7.10;4.57;;;;;;;;;;5097752;28;20201;-72
2023/03/23 07:08:02;;;;;;;6.60;4.37;;;;;;;;;;5097736;28;20255;-72
2023/03/23 07:10:28;;;;;;;13.13;5.60;;;;;;;;;;5078983;28;20242;-71
2023/03/23 07:12:54;;;;;;;7.10;3.70;;;;;;;;;;5097415;28;20201;-72
2023/03/23 07:15:20;;;;;;;5.83;2.93;;;;;;;;;;5096946;28;20230;-72
2023/03/23 07:17:47;;;;;;;13.40;8.23;;;;;;;;;;5078697;28;20180;-71
2023/03/23 07:20:14;;;;;;;12.27;6.80;;;;;;;;;;5097247;28;20177;-73
2023/03/23 07:22:40;;;;;;;10.70;7.50;;;;;;;;;;5078735;28;20239;-72
2023/03/23 07:25:07;;;;;;;9.50;5.00;;;;;;;;;;5078813;28;20775;-71
2023/03/23 07:27:33;;;;;;;8.87;5.00;;;;;;;;;;5096793;28;20166;-71
2023/03/23 07:29:59;;;;;;;7.33;5.17;;;;;;;;;;5096851;28;20200;-72
2023/03/23 07:32:25;;;;;;;11.23;8.90;;;;;;;;;;5097274;28;20189;-70
2023/03/23 07:34:51;;;;;;;9.07;7.07;;;;;;;;;;5096831;28;20181;-71
2023/03/23 07:37:17;;;;;;;6.30;3.63;;;;;;;;;;5078649;28;20238;-71
2023/03/23 07:39:43;;;;;;;5.67;2.87;;;;;;;;;;5096347;28;20177;-71
2023/03/23 07:42:10;;;;;;;4.00;3.03;;;;;;;;;;5096468;28;20216;-71
2023/03/23 07:44:36;;;;;;;6.67;3.30;;;;;;;;;;5078382;28;20667;-71
2023/03/23 07:47:02;;;;;;;4.90;2.60;;;;;;;;;;5096487;28;20180;-71
2023/03/23 07:49:30;;;;;;;4.17;2.60;;;;;;;;;;5078930;28;20662;-71
2023/03/23 07:51:56;;;;;;;5.33;2.60;;;;;;;;;;5078224;28;20201;-71
2023/03/23 07:54:22;;;;;;;5.77;2.60;;;;;;;;;;5096380;28;20535;-71
2023/03/23 07:56:48;;;;;;;5.97;2.33;;;;;;;;;;5096369;28;20226;-72
2023/03/23 07:59:15;;;;;;;6.17;2.90;;;;;;;;;;5096521;28;20180;-71
2023/03/23 08:01:41;;;;;;;8.30;2.87;;;;;;;;;;5096120;28;20311;-71
2023/03/23 08:04:07;;;;;;;4.77;2.47;;;;;;;;;;5077906;28;20300;-71
2023/03/23 08:06:34;;;;;;;4.20;2.47;;;;;;;;;;5077917;28;20188;-71
2023/03/23 08:09:00;;;;;;;4.23;2.67;;;;;;;;;;5096024;28;20169;-72
2023/03/23 08:11:27;;;;;;;7.07;3.80;;;;;;;;;;5095967;28;20169;-71
2023/03/23 08:13:53;;;;;;;5.53;2.57;;;;;;;;;;5077443;28;20224;-71
2023/03/23 08:16:19;;;;;;;6.07;2.60;;;;;;;;;;5095935;28;20216;-72
2023/03/23 08:18:46;;;;;;;5.30;3.03;;;;;;;;;;5096742;28;20562;-71
2023/03/23 08:21:13;;;;;;;4.87;3.47;;;;;;;;;;5095633;28;20227;-72
2023/03/23 08:23:39;;;;;;;5.30;2.90;;;;;;;;;;5077263;28;20247;-72
2023/03/23 08:26:08;;;;;;;4.57;2.30;;;;;;;;;;5077411;28;20550;-71
2023/03/23 08:28:35;;;;;;;3.73;2.87;;;;;;;;;;5095381;28;20174;-71
2023/03/23 08:31:06;;;;;;;3.80;2.57;;;;;;;;;;5077491;28;20226;-71
2023/03/23 08:33:33;;;;;;;5.37;2.47;;;;;;;;;;5095554;28;20594;-71
2023/03/23 08:36:00;;;;;;;4.40;2.73;;;;;;;;;;5095294;28;20200;-71
2023/03/23 08:38:27;;;;;;;5.43;2.40;;;;;;;;;;5077134;28;20188;-71
2023/03/23 08:40:57;;;;;;;5.60;2.43;;;;;;;;;;5076945;28;20280;-71
2023/03/23 08:43:23;;;;;;;4.63;2.07;;;;;;;;;;5077036;28;20296;-71
2023/03/23 08:45:50;;;;;;;5.10;2.40;;;;;;;;;;5077232;28;20676;-71
2023/03/23 08:48:16;;;;;;;6.00;2.40;;;;;;;;;;5077245;28;20596;-71
2023/03/23 08:50:42;;;;;;;3.90;2.23;;;;;;;;;;5076186;28;20177;-71
2023/03/23 08:53:08;;;;;;;5.93;2.17;;;;;;;;;;5076905;28;20201;-72
2023/03/23 08:55:34;;;;;;;5.53;2.27;;;;;;;;;;5076776;28;20211;-72
2023/03/23 08:58:00;;;;;;;7.73;2.40;;;;;;;;;;5076879;28;20177;-71
2023/03/23 09:00:27;;;;;;;5.50;2.70;;;;;;;;;;5076794;28;20187;-71
2023/03/23 09:02:54;;;;;;;5.93;2.67;;;;;;;;;;5094674;28;20694;-71
2023/03/23 09:05:22;;;;;;;6.30;2.37;;;;;;;;;;5095056;28;20180;-71
2023/03/23 09:07:50;;;;;;;6.73;2.97;;;;;;;;;;5076530;28;20233;-71
2023/03/23 09:10:17;;;;;;;4.97;2.40;;;;;;;;;;5094876;28;20225;-71
2023/03/23 09:12:43;;;;;;;5.37;2.60;;;;;;;;;;5076380;28;20747;-71
2023/03/23 09:15:11;;;;;;;5.70;2.30;;;;;;;;;;5094463;28;20283;-71
2023/03/23 09:17:38;;;;;;;10.87;3.00;;;;;;;;;;5094490;28;20173;-71
2023/03/23 09:20:11;;;;;;;7.47;3.77;;;;;;;;;;5076514;28;20217;-71
2023/03/23 09:22:39;;;;;;;13.33;3.00;;;;;;;;;;5094847;28;20215;-71
2023/03/23 09:25:06;;;;;;;12.33;3.00;;;;;;;;;;5076179;28;20185;-71
2023/03/23 09:27:32;;;;;;;7.47;3.10;;;;;;;;;;5094180;28;20177;-71
2023/03/23 09:30:00;;;;;;;5.63;2.70;;;;;;;;;;5094465;28;20678;-72
2023/03/23 09:32:26;;;;;;;4.07;1.87;;;;;;;;;;5095490;28;20693;-72
2023/03/23 09:34:55;;;;;;;9.57;2.60;;;;;;;;;;5076998;28;20177;-72
2023/03/23 09:37:20;;;;;;;8.50;2.73;;;;;;;;;;5094438;28;20597;-71
2023/03/23 09:39:46;;;;;;;8.20;2.80;;;;;;;;;;5076510;28;20173;-71
2023/03/23 09:42:19;;;;;;;10.50;2.83;;;;;;;;;;5076344;28;20686;-72
2023/03/23 09:44:45;;;;;;;11.53;2.70;;;;;;;;;;5076383;28;20193;-71
2023/03/23 09:47:15;;;;;;;8.97;3.47;;;;;;;;;;5075993;28;20233;-71
2023/03/23 09:49:43;;;;;;;6.37;3.00;;;;;;;;;;5076090;28;20230;-71
2023/03/23 09:52:14;;;;;;;8.60;3.40;;;;;;;;;;5094277;28;20196;-72
2023/03/23 09:54:41;;;;;;;7.20;2.90;;;;;;;;;;5076266;28;20635;-72
2023/03/23 09:57:17;;;;;;;4.67;2.30;;;;;;;;;;5076629;28;20181;-71
2023/03/23 09:59:50;;;;;;;5.57;2.30;;;;;;;;;;5076320;28;20180;-71
2023/03/23 10:02:18;;;;;;;5.47;1.90;;;;;;;;;;5076564;28;20197;-71
2023/03/23 10:04:46;;;;;;;6.50;2.10;;;;;;;;;;5076133;28;20204;-71
2023/03/23 10:07:13;;;;;;;6.03;1.87;;;;;;;;;;5094208;28;20169;-72
2023/03/23 10:09:40;;;;;;;5.37;2.63;;;;;;;;;;5094808;28;20188;-72
2023/03/23 10:12:06;;;;;;;4.90;1.77;;;;;;;;;;5076474;28;20201;-71
2023/03/23 10:14:36;;;;;;;3.57;1.90;;;;;;;;;;5076410;28;20181;-72
2023/03/23 10:17:12;;;;;;;4.07;2.17;;;;;;;;;;5093718;28;20234;-71
2023/03/23 10:19:38;;;;;;;4.07;1.97;;;;;;;;;;5075594;28;20260;-71
2023/03/23 10:22:07;;;;;;;7.03;2.47;;;;;;;;;;5075482;28;20231;-71
2023/03/23 10:24:36;;;;;;;8.47;2.30;;;;;;;;;;5075757;28;20204;-72
2023/03/23 10:27:13;;;;;;;4.83;2.43;;;;;;;;;;5094178;28;20169;-71
2023/03/23 10:29:58;;;;;;;7.53;2.40;;;;;;;;;;5093664;28;20205;-71
2023/03/23 10:32:38;;;;;;;3.43;2.33;;;;;;;;;;5075711;28;20573;-71
2023/03/23 10:35:08;;;;;;;5.83;2.20;;;;;;;;;;5094598;28;20165;-71
2023/03/23 10:37:37;;;;;;;7.23;2.23;;;;;;;;;;5076552;28;20181;-71
2023/03/23 10:40:09;;;;;;;3.77;1.90;;;;;;;;;;5077140;28;20610;-72
2023/03/23 10:42:37;;;;;;;6.80;2.17;;;;;;;;;;5076880;28;20224;-72
2023/03/23 10:45:32;;;;;;;4.40;2.20;;;;;;;;;;5095761;28;20228;-71
2023/03/23 10:48:17;;;;;;;6.17;2.27;;;;;;;;;;5075570;28;20203;-72
2023/03/23 10:50:44;;;;;;;6.53;2.00;;;;;;;;;;5094748;28;20643;-71
2023/03/23 10:53:20;;;;;;;3.17;1.80;;;;;;;;;;5077791;28;20197;-72
2023/03/23 10:55:46;;;;;;;4.87;2.13;;;;;;;;;;5077930;28;20185;-72
2023/03/23 10:58:22;;;;;;;4.43;1.60;;;;;;;;;;5077684;28;20573;-71
2023/03/23 11:00:48;;;;;;;3.03;1.80;;;;;;;;;;5094401;28;20168;-72
2023/03/23 11:03:15;;;;;;;6.37;2.30;;;;;;;;;;5093992;28;20236;-72
2023/03/23 11:05:43;;;;;;;4.67;2.40;;;;;;;;;;5076880;28;20272;-72
2023/03/23 11:08:14;;;;;;;6.17;1.70;;;;;;;;;;5083874;28;20291;-72
2023/03/23 11:10:42;;;;;;;7.17;1.97;;;;;;;;;;5083661;28;20181;-72
2023/03/23 11:13:15;;;;;;;4.40;1.80;;;;;;;;;;5085461;28;20293;-72
2023/03/23 11:15:42;;;;;;;4.30;2.00;;;;;;;;;;5082364;28;20181;-72
2023/03/23 11:18:18;;;;;;;1.70;1.60;;;;;;;;;;5080138;28;20220;-72
2023/03/23 11:20:48;;;;;;;3.77;2.00;;;;;;;;;;5098836;28;20256;-72
2023/03/23 11:23:20;;;;;;;4.43;1.93;;;;;;;;;;5079651;28;20235;-72
2023/03/23 11:26:05;;;;;;;5.00;3.70;;;;;;;;;;5098363;28;20170;-72
2023/03/23 11:28:36;;;;;;;7.63;5.87;;;;;;;;;;5097947;28;20546;-72
2023/03/23 11:31:03;;;;;;;4.80;2.77;;;;;;;;;;5079920;28;20177;-71
2023/03/23 11:33:31;;;;;;;5.73;3.80;;;;;;;;;;5079515;28;20204;-70
2023/03/23 11:35:57;;;;;;;4.57;2.20;;;;;;;;;;5080739;28;20184;-71
2023/03/23 11:38:27;;;;;;;6.17;2.33;;;;;;;;;;5081216;28;20177;-71
2023/03/23 11:40:53;;;;;;;3.73;2.33;;;;;;;;;;5099791;28;20245;-71
2023/03/23 11:43:21;;;;;;;3.97;2.10;;;;;;;;;;5081014;28;20259;-70
2023/03/23 11:46:10;;;;;;;6.50;2.27;;;;;;;;;;5083379;28;20188;-71
2023/03/23 11:48:52;;;;;;;5.37;2.63;;;;;;;;;;5081681;28;20185;-71
2023/03/23 11:51:21;;;;;;;4.87;2.20;;;;;;;;;;5099558;28;20206;-72
2023/03/23 11:53:47;;;;;;;5.27;3.17;;;;;;;;;;5063625;28;20193;-72
2023/03/23 11:56:19;;;;;;;3.73;2.27;;;;;;;;;;5098030;28;20185;-72
2023/03/23 11:58:46;;;;;;;3.70;2.20;;;;;;;;;;5099977;28;20252;-70
2023/03/23 12:01:18;;;;;;;3.33;2.07;;;;;;;;;;5081787;28;20192;-72
2023/03/23 12:03:52;;;;;;;4.70;2.07;;;;;;;;;;5099172;28;20662;-72
2023/03/23 12:06:31;;;;;;;3.87;2.30;;;;;;;;;;5081286;28;20165;-71
2023/03/23 12:09:06;;;;;;;4.20;2.20;;;;;;;;;;5098802;28;20153;-71
2023/03/23 12:11:51;;;;;;;4.40;2.30;;;;;;;;;;5098127;28;20244;-71
2023/03/23 12:14:20;;;;;;;2.53;2.10;;;;;;;;;;5098706;28;20651;-71
2023/03/23 12:16:58;;;;;;;2.27;2.07;;;;;;;;;;5080499;28;20205;-71
2023/03/23 12:19:42;;;;;;;5.90;2.40;;;;;;;;;;5081192;28;20185;-71
2023/03/23 12:22:41;;;;;;;3.87;2.40;;;;;;;;;;5080050;28;20367;-70
2023/03/23 12:25:26;;;;;;;5.10;2.53;;;;;;;;;;5037897;28;20278;-71
2023/03/23 12:28:01;;;;;;;5.30;2.37;;;;;;;;;;5098416;28;20183;-71
2023/03/23 12:30:27;;;;;;;3.40;2.03;;;;;;;;;;5099232;28;20240;-73
2023/03/23 12:32:58;;;;;;;3.80;2.23;;;;;;;;;;5096812;28;20231;-71
2023/03/23 12:35:32;;;;;;;3.00;2.10;;;;;;;;;;5096827;28;20166;-71
2023/03/23 12:38:02;;;;;;;3.93;2.33;;;;;;;;;;5078738;28;20172;-72
2023/03/23 12:40:43;;;;;;;4.70;2.77;;;;;;;;;;5078403;28;20205;-71
2023/03/23 12:43:14;;;;;;;4.33;2.53;;;;;;;;;;5095902;28;20221;-72
2023/03/23 12:46:03;;;;;;;3.60;2.33;;;;;;;;;;5096300;28;20566;-71
2023/03/23 12:48:40;;;;;;;4.67;2.50;;;;;;;;;;5077898;28;20584;-71
2023/03/23 12:51:28;;;;;;;3.30;2.73;;;;;;;;;;5078993;28;20169;-71
2023/03/23 12:53:54;;;;;;;4.10;2.17;;;;;;;;;;5061843;28;20292;-71
2023/03/23 12:56:24;;;;;;;5.17;2.20;;;;;;;;;;5096132;28;20204;-71
2023/03/23 12:59:09;;;;;;;2.87;2.20;;;;;;;;;;5078012;28;20207;-71
2023/03/23 13:01:42;;;;;;;4.13;2.37;;;;;;;;;;5077677;28;20258;-71
2023/03/23 13:04:13;;;;;;;3.70;2.43;;;;;;;;;;5077556;28;20204;-71
2023/03/23 13:06:42;;;;;;;4.67;3.10;;;;;;;;;;5096120;28;20182;-70
2023/03/23 13:09:08;;;;;;;3.73;2.70;;;;;;;;;;5076463;28;20593;-70
2023/03/23 13:11:35;;;;;;;3.20;2.40;;;;;;;;;;5094476;28;20260;-70
2023/03/23 13:14:10;;;;;;;5.33;2.53;;;;;;;;;;5094756;28;20716;-70
2023/03/23 13:16:41;;;;;;;3.80;2.13;;;;;;;;;;5094459;28;20188;-70
2023/03/23 13:19:30;;;;;;;3.60;2.40;;;;;;;;;;5094459;28;20169;-70
2023/03/23 13:22:15;;;;;;;2.83;2.20;;;;;;;;;;5094595;28;20293;-70
2023/03/23 13:24:50;;;;;;;2.93;2.30;;;;;;;;;;5094382;28;20193;-70
2023/03/23 13:27:17;;;;;;;4.43;2.10;;;;;;;;;;5094774;28;20153;-70
2023/03/23 13:29:46;;;;;;;3.97;2.40;;;;;;;;;;5094691;28;20635;-70
2023/03/23 13:32:16;;;;;;;6.03;2.60;;;;;;;;;;5095955;28;20197;-70
2023/03/23 13:34:42;;;;;;;4.43;2.60;;;;;;;;;;5096258;28;20181;-70
2023/03/23 13:37:18;;;;;;;5.07;2.67;;;;;;;;;;5095228;28;20181;-70
2023/03/23 13:39:53;;;;;;;4.67;3.07;;;;;;;;;;5076095;28;20636;-70
2023/03/23 13:42:21;;;;;;;6.67;2.87;;;;;;;;;;5075877;28;20212;-70
2023/03/23 13:44:49;;;;;;;3.83;2.40;;;;;;;;;;5094470;28;20200;-70
2023/03/23 13:47:26;;;;;;;5.93;2.43;;;;;;;;;;5075935;28;20638;-70
2023/03/23 13:49:52;;;;;;;3.43;2.27;;;;;;;;;;5094283;28;20164;-70
2023/03/23 13:52:23;;;;;;;4.03;2.60;;;;;;;;;;5093996;28;20196;-70
2023/03/23 13:54:51;;;;;;;4.13;2.53;;;;;;;;;;5075680;28;20253;-70
2023/03/23 13:57:26;;;;;;;9.90;7.13;;;;;;;;;;5075852;28;20646;-70
2023/03/23 14:00:00;;;;;;;3.93;2.70;;;;;;;;;;5094099;28;20188;-70
2023/03/23 14:02:36;;;;;;;6.77;2.93;;;;;;;;;;5093819;28;20576;-70
2023/03/23 14:05:17;;;;;;;4.80;3.03;;;;;;;;;;5093649;28;20200;-70
2023/03/23 14:07:54;;;;;;;5.33;3.10;;;;;;;;;;5075632;28;20177;-70
2023/03/23 14:10:20;;;;;;;4.33;2.83;;;;;;;;;;5075556;28;20184;-70
2023/03/23 14:12:47;;;;;;;4.57;2.83;;;;;;;;;;5075586;28;20193;-70
2023/03/23 14:15:13;;;;;;;3.90;2.80;;;;;;;;;;5093993;28;20184;-70
2023/03/23 14:17:44;;;;;;;4.90;2.60;;;;;;;;;;5075423;28;20192;-70
2023/03/23 14:20:19;;;;;;;7.37;2.50;;;;;;;;;;5075593;28;20214;-70
2023/03/23 14:22:45;;;;;;;2.47;2.27;;;;;;;;;;5075486;28;20207;-70
2023/03/23 14:25:15;;;;;;;4.77;3.03;;;;;;;;;;5075409;28;20204;-70
2023/03/23 14:27:42;;;;;;;4.53;2.77;;;;;;;;;;5093621;28;20175;-70
2023/03/23 14:30:09;;;;;;;5.47;3.17;;;;;;;;;;5093580;28;20668;-72
2023/03/23 14:32:35;;;;;;;7.60;3.90;;;;;;;;;;5075241;28;20193;-70
2023/03/23 14:35:06;;;;;;;48.27;8.97;;;;;;;;;;5093525;28;20177;-70
2023/03/23 14:37:32;;;;;;;30.00;8.53;;;;;;;;;;5075279;28;20177;-70
2023/03/23 14:39:59;;;;;;;6.13;4.67;;;;;;;;;;5093582;28;20181;-70
2023/03/23 14:42:33;;;;;;;10.23;6.63;;;;;;;;;;5074968;28;20220;-70
2023/03/23 14:45:00;;;;;;;7.97;4.90;;;;;;;;;;5075046;28;20698;-71
2023/03/23 14:47:38;;;;;;;5.27;4.70;;;;;;;;;;5075157;28;20173;-70
2023/03/23 14:50:06;;;;;;;97.47;12.83;;;;;;;;;;5097030;28;20638;-70
2023/03/23 14:52:36;;;;;;;5.20;3.10;;;;;;;;;;5079178;28;20254;-70
2023/03/23 14:55:17;;;;;;;4.43;3.17;;;;;;;;;;5097571;28;20184;-70